createdAt,value
2023-12-04T00:01:49.354Z,6.70
2023-12-04T00:04:15.924Z,5.25
2023-12-04T00:06:42.502Z,6.15
2023-12-04T00:09:08.943Z,6.25
2023-12-04T00:11:35.450Z,5.80
2023-12-04T00:14:01.902Z,5.90
2023-12-04T00:16:28.318Z,5.70
2023-12-04T00:18:54.893Z,5.75
2023-12-04T00:21:21.377Z,5.93
2023-12-04T00:23:47.816Z,6.10
2023-12-04T00:26:14.254Z,5.82
2023-12-04T00:28:40.686Z,5.68
2023-12-04T00:31:07.140Z,5.60
2023-12-04T00:33:33.751Z,5.93
2023-12-04T00:36:01.148Z,5.55
2023-12-04T00:38:27.574Z,6.35
2023-12-04T00:40:54.013Z,6.28
2023-12-04T00:43:20.433Z,6.07
2023-12-04T00:45:46.873Z,5.93
2023-12-04T00:48:13.400Z,5.85
2023-12-04T00:50:39.908Z,6.00
2023-12-04T00:53:06.340Z,5.95
2023-12-04T00:55:32.812Z,6.35
2023-12-04T00:57:59.283Z,5.88
2023-12-04T01:00:25.746Z,6.20
2023-12-04T01:02:52.190Z,5.85
2023-12-04T01:05:18.661Z,5.03
2023-12-04T01:07:45.090Z,5.13
2023-12-04T01:10:11.515Z,6.18
2023-12-04T01:12:37.989Z,6.13
2023-12-04T01:15:04.420Z,5.22
2023-12-04T01:17:30.887Z,6.65
2023-12-04T01:19:57.308Z,6.22
2023-12-04T01:22:23.689Z,5.43
2023-12-04T01:24:50.179Z,6.18
2023-12-04T01:27:16.696Z,6.13
2023-12-04T01:29:43.116Z,6.40
2023-12-04T01:32:09.570Z,4.97
2023-12-04T01:34:35.982Z,6.05
2023-12-04T01:37:02.399Z,5.25
2023-12-04T01:39:28.877Z,6.82
2023-12-04T01:41:55.293Z,5.93
2023-12-04T01:44:21.718Z,5.60
2023-12-04T01:46:48.175Z,7.05
2023-12-04T01:49:14.684Z,6.60
2023-12-04T01:51:41.167Z,5.40
2023-12-04T01:54:07.619Z,6.32
2023-12-04T01:56:34.045Z,6.00
2023-12-04T01:59:00.637Z,5.22
2023-12-04T02:01:27.101Z,5.93
2023-12-04T02:03:53.592Z,5.93
2023-12-04T02:06:20.075Z,5.90
2023-12-04T02:08:46.537Z,6.30
2023-12-04T02:11:13.044Z,6.55
2023-12-04T02:13:39.472Z,5.15
2023-12-04T02:16:05.931Z,6.25
2023-12-04T02:18:32.421Z,6.50
2023-12-04T02:20:58.961Z,6.20
2023-12-04T02:23:25.394Z,6.95
2023-12-04T02:25:51.824Z,6.10
2023-12-04T02:28:18.339Z,5.55
2023-12-04T02:30:44.822Z,5.70
2023-12-04T02:33:11.432Z,6.13
2023-12-04T02:35:37.968Z,5.70
2023-12-04T02:38:04.400Z,5.28
2023-12-04T02:40:30.828Z,5.35
2023-12-04T02:42:57.326Z,5.45
2023-12-04T02:45:23.748Z,4.95
2023-12-04T02:47:50.272Z,6.50
2023-12-04T02:50:16.747Z,6.13
2023-12-04T02:52:43.161Z,5.88
2023-12-04T02:55:09.666Z,5.90
2023-12-04T02:57:36.185Z,5.78
2023-12-04T03:00:02.671Z,5.82
2023-12-04T03:02:29.139Z,5.45
2023-12-04T03:04:55.565Z,6.30
2023-12-04T03:07:21.976Z,5.40
2023-12-04T03:09:49.830Z,4.95
2023-12-04T03:12:16.511Z,4.95
2023-12-04T03:14:42.950Z,4.82
2023-12-04T03:17:09.403Z,5.60
2023-12-04T03:19:35.912Z,4.18
2023-12-04T03:22:02.607Z,4.18
2023-12-04T03:24:29.146Z,5.25
2023-12-04T03:26:55.642Z,4.70
2023-12-04T03:29:22.076Z,4.25
2023-12-04T03:31:48.508Z,4.10
2023-12-04T03:34:15.030Z,5.38
2023-12-04T03:36:41.486Z,3.30
2023-12-04T03:39:07.927Z,3.40
2023-12-04T03:41:34.368Z,3.80
2023-12-04T03:44:00.787Z,3.42
2023-12-04T03:46:27.198Z,3.10
2023-12-04T03:48:53.740Z,3.47
2023-12-04T03:51:20.212Z,3.30
2023-12-04T03:53:46.660Z,3.35
2023-12-04T03:56:13.088Z,3.25
2023-12-04T03:58:39.497Z,3.13
2023-12-04T04:01:05.974Z,2.78
2023-12-04T04:03:32.498Z,3.00
2023-12-04T04:05:58.925Z,2.47
2023-12-04T04:08:25.403Z,3.22
2023-12-04T04:10:51.823Z,3.35
2023-12-04T04:13:18.306Z,2.72
2023-12-04T04:15:44.785Z,2.63
2023-12-04T04:18:11.277Z,3.20
2023-12-04T04:20:37.762Z,3.10
2023-12-04T04:23:04.211Z,3.67
2023-12-04T04:25:30.637Z,2.70
2023-12-04T04:27:57.112Z,2.67
2023-12-04T04:30:23.566Z,3.00
2023-12-04T04:32:50.022Z,6.07
2023-12-04T04:35:16.468Z,2.47
2023-12-04T04:37:45.380Z,2.60
2023-12-04T04:40:12.482Z,2.40
2023-12-04T04:42:38.957Z,2.55
2023-12-04T04:45:05.400Z,2.38
2023-12-04T04:47:31.856Z,2.72
2023-12-04T04:49:58.334Z,2.13
2023-12-04T04:52:24.799Z,2.65
2023-12-04T04:54:51.253Z,2.60
2023-12-04T04:57:17.659Z,2.80
2023-12-04T04:59:44.110Z,2.97
2023-12-04T05:02:10.581Z,2.03
2023-12-04T05:04:37.109Z,2.33
2023-12-04T05:07:03.650Z,2.22
2023-12-04T05:09:30.063Z,2.30
2023-12-04T05:11:57.966Z,167.68
2023-12-04T05:14:24.406Z,117.00
2023-12-04T05:16:50.830Z,70.13
2023-12-04T05:19:17.338Z,68.82
2023-12-04T05:21:43.861Z,71.55
2023-12-04T05:24:10.360Z,63.38
2023-12-04T05:26:36.774Z,58.65
2023-12-04T05:29:03.275Z,52.53
2023-12-04T05:31:29.737Z,56.25
2023-12-04T05:33:56.289Z,47.13
2023-12-04T05:36:22.833Z,46.67
2023-12-04T05:38:49.277Z,47.17
2023-12-04T05:41:15.696Z,47.17
2023-12-04T05:43:42.158Z,41.97
2023-12-04T05:46:08.607Z,44.42
2023-12-04T05:48:35.051Z,28.05
2023-12-04T05:51:01.541Z,35.10
2023-12-04T05:53:27.949Z,33.80
2023-12-04T05:55:54.363Z,30.80
2023-12-04T05:58:20.881Z,26.45
2023-12-04T06:00:47.385Z,23.80
2023-12-04T06:03:13.845Z,22.13
2023-12-04T06:05:40.379Z,24.85
2023-12-04T06:08:06.820Z,24.77
2023-12-04T06:10:33.238Z,23.60
2023-12-04T06:12:59.766Z,23.40
2023-12-04T06:15:26.225Z,21.65
2023-12-04T06:17:52.695Z,22.58
2023-12-04T06:20:19.164Z,18.92
2023-12-04T06:22:45.603Z,17.92
2023-12-04T06:25:12.060Z,19.88
2023-12-04T06:27:38.598Z,21.75
2023-12-04T06:30:05.032Z,15.43
2023-12-04T06:32:31.512Z,16.05
2023-12-04T06:34:57.998Z,16.27
2023-12-04T06:37:24.406Z,12.85
2023-12-04T06:39:50.840Z,15.63
2023-12-04T06:42:18.588Z,16.85
2023-12-04T06:44:45.010Z,11.13
2023-12-04T06:47:11.486Z,14.77
2023-12-04T06:49:37.945Z,11.73
2023-12-04T06:52:04.460Z,12.98
2023-12-04T06:54:30.943Z,12.68
2023-12-04T06:56:57.386Z,11.55
2023-12-04T06:59:23.818Z,15.30
2023-12-04T07:01:50.298Z,13.10
2023-12-04T07:04:16.813Z,16.48
2023-12-04T07:06:43.261Z,17.95
2023-12-04T07:09:09.723Z,17.65
2023-12-04T07:11:36.171Z,19.92
2023-12-04T07:14:02.616Z,17.55
2023-12-04T07:16:29.065Z,22.90
2023-12-04T07:18:55.557Z,19.08
2023-12-04T07:21:22.005Z,21.13
2023-12-04T07:23:48.444Z,19.40
2023-12-04T07:26:14.981Z,18.63
2023-12-04T07:28:41.401Z,19.48
2023-12-04T07:31:07.867Z,15.68
2023-12-04T07:33:34.531Z,18.30
2023-12-04T07:36:01.043Z,16.45
2023-12-04T07:38:29.335Z,15.07
2023-12-04T07:40:55.897Z,13.90
2023-12-04T07:43:22.401Z,15.32
2023-12-04T07:45:48.975Z,14.50
2023-12-04T07:48:15.508Z,15.13
2023-12-04T07:50:41.968Z,15.82
2023-12-04T07:53:08.414Z,14.07
2023-12-04T07:55:34.826Z,16.40
2023-12-04T07:58:01.296Z,16.63
2023-12-04T08:00:27.759Z,11.10
2023-12-04T08:02:54.154Z,18.45
2023-12-04T08:05:20.594Z,19.80
2023-12-04T08:07:47.003Z,18.85
2023-12-04T08:10:13.517Z,12.32
2023-12-04T08:12:40.062Z,15.25
2023-12-04T08:15:06.544Z,12.80
2023-12-04T08:17:32.995Z,14.18
2023-12-04T08:19:59.756Z,9.13
2023-12-04T08:22:26.312Z,10.77
2023-12-04T08:24:52.830Z,8.98
2023-12-04T08:27:19.318Z,8.05
2023-12-04T08:29:45.723Z,11.68
2023-12-04T08:32:12.208Z,7.60
2023-12-04T08:34:38.647Z,7.93
2023-12-04T08:37:05.213Z,7.75
2023-12-04T08:39:31.685Z,7.90
2023-12-04T08:42:01.924Z,23.33
2023-12-04T08:44:31.601Z,16.30
2023-12-04T08:46:58.398Z,14.65
2023-12-04T08:49:27.693Z,11.73
2023-12-04T08:51:59.145Z,11.57
2023-12-04T08:54:25.604Z,8.93
2023-12-04T08:56:52.509Z,9.80
2023-12-04T08:59:18.972Z,8.73
2023-12-04T09:01:45.719Z,18.23
2023-12-04T09:04:12.331Z,13.80
2023-12-04T09:09:11.208Z,13.23
2023-12-04T09:11:39.987Z,11.65
2023-12-04T09:14:06.448Z,9.88
2023-12-04T09:16:32.897Z,11.95
2023-12-04T09:18:59.419Z,8.23
2023-12-04T09:21:25.871Z,9.35
2023-12-04T09:23:52.518Z,8.77
2023-12-04T09:26:18.974Z,18.98
2023-12-04T09:28:45.388Z,18.33
2023-12-04T09:31:11.894Z,29.23
2023-12-04T09:33:38.399Z,20.38
2023-12-04T09:36:05.029Z,29.52
2023-12-04T09:38:31.508Z,35.85
2023-12-04T09:40:58.497Z,25.10
2023-12-04T09:43:25.629Z,18.35
2023-12-04T09:45:52.848Z,15.98
2023-12-04T09:48:19.475Z,18.52
2023-12-04T09:50:46.125Z,12.52
2023-12-04T09:53:12.617Z,29.95
2023-12-04T09:55:39.035Z,19.42
2023-12-04T09:58:05.498Z,22.35
2023-12-04T10:00:31.925Z,15.95
2023-12-04T10:02:58.577Z,29.80
2023-12-04T10:05:25.117Z,22.73
2023-12-04T10:07:51.590Z,18.52
2023-12-04T10:10:18.001Z,20.38
2023-12-04T10:12:44.651Z,15.93
2023-12-04T10:15:11.365Z,15.63
2023-12-04T10:17:37.941Z,14.85
2023-12-04T10:20:04.418Z,13.68
2023-12-04T10:22:30.982Z,14.88
2023-12-04T10:24:57.398Z,13.77
2023-12-04T10:27:23.875Z,12.88
2023-12-04T10:29:50.347Z,12.32
2023-12-04T10:32:16.811Z,13.88
2023-12-04T10:34:43.294Z,14.10
2023-12-04T10:37:09.696Z,12.43
2023-12-04T10:39:36.198Z,14.40
2023-12-04T10:42:02.822Z,13.23
2023-12-04T10:44:29.315Z,13.05
2023-12-04T10:46:55.775Z,12.80
2023-12-04T10:49:22.451Z,13.13
2023-12-04T10:51:48.987Z,12.48
2023-12-04T10:54:15.538Z,13.63
2023-12-04T10:56:42.056Z,14.05
2023-12-04T10:59:08.452Z,15.93
2023-12-04T11:01:34.974Z,17.10
2023-12-04T11:04:02.317Z,14.43
2023-12-04T11:06:28.784Z,13.00
2023-12-04T11:08:55.294Z,14.18
2023-12-04T11:11:21.729Z,14.88
2023-12-04T11:13:48.136Z,13.23
2023-12-04T11:16:14.670Z,13.23
2023-12-04T11:18:41.277Z,13.73
2023-12-04T11:21:08.323Z,12.13
2023-12-04T11:23:34.946Z,13.95
2023-12-04T11:26:01.452Z,18.63
2023-12-04T11:28:27.950Z,13.50
2023-12-04T11:30:54.413Z,12.63
2023-12-04T11:33:21.007Z,13.23
2023-12-04T11:35:47.478Z,12.02
2023-12-04T11:38:13.899Z,11.90
2023-12-04T11:40:40.317Z,11.55
2023-12-04T11:43:06.775Z,10.68
2023-12-04T11:45:33.458Z,11.50
2023-12-04T11:47:59.974Z,13.55
2023-12-04T11:50:26.451Z,11.68
2023-12-04T11:52:52.913Z,12.10
2023-12-04T11:55:19.367Z,11.15
2023-12-04T11:57:45.970Z,10.55
2023-12-04T12:00:12.539Z,8.77
2023-12-04T12:03:14.662Z,9.70
2023-12-04T12:05:28.679Z,10.25
2023-12-04T12:07:55.162Z,10.75
2023-12-04T12:10:21.561Z,10.30
2023-12-04T12:12:48.057Z,8.75
2023-12-04T12:15:14.520Z,12.73
2023-12-04T12:17:41.001Z,12.57
2023-12-04T12:20:07.443Z,11.73
2023-12-04T12:22:33.873Z,11.65
2023-12-04T12:25:00.341Z,11.73
2023-12-04T12:27:26.815Z,9.85
2023-12-04T12:29:53.310Z,14.18
2023-12-04T12:32:19.737Z,12.68
2023-12-04T12:34:46.325Z,11.82
2023-12-04T12:37:12.807Z,8.77
2023-12-04T12:39:39.263Z,11.25
2023-12-04T12:42:05.819Z,11.90
2023-12-04T12:44:32.304Z,13.77
2023-12-04T12:46:58.779Z,10.77
2023-12-04T12:49:32.847Z,14.00
2023-12-04T12:52:03.257Z,16.58
2023-12-04T12:54:29.805Z,15.50
2023-12-04T12:56:56.319Z,10.80
2023-12-04T12:59:22.757Z,13.80
2023-12-04T13:01:49.300Z,15.48
2023-12-04T13:04:15.907Z,17.05
2023-12-04T13:06:42.474Z,12.93
2023-12-04T13:09:09.027Z,12.77
2023-12-04T13:11:35.532Z,16.90
2023-12-04T13:14:02.035Z,15.00
2023-12-04T13:16:28.479Z,19.45
2023-12-04T13:18:54.934Z,19.02
2023-12-04T13:21:21.730Z,17.75
2023-12-04T13:23:48.217Z,23.33
2023-12-04T13:26:14.683Z,21.35
2023-12-04T13:28:44.540Z,21.50
2023-12-04T13:31:11.347Z,16.60
2023-12-04T13:33:37.840Z,19.55
2023-12-04T13:36:04.300Z,23.02
2023-12-04T13:38:35.242Z,16.40
2023-12-04T13:41:04.249Z,14.70
2023-12-04T13:43:30.707Z,19.63
2023-12-04T13:45:57.184Z,19.55
2023-12-04T13:48:23.691Z,17.63
2023-12-04T13:50:50.297Z,15.00
2023-12-04T13:53:16.741Z,16.55
2023-12-04T13:55:43.172Z,18.58
2023-12-04T13:58:09.737Z,17.75
2023-12-04T14:00:36.176Z,14.07
2023-12-04T14:03:02.741Z,13.98
2023-12-04T14:05:29.583Z,16.55
2023-12-04T14:07:56.481Z,13.07
2023-12-04T14:10:24.011Z,12.60
2023-12-04T14:12:50.497Z,15.13
2023-12-04T14:15:16.957Z,13.77
2023-12-04T14:17:43.411Z,19.48
2023-12-04T14:20:09.900Z,16.45
2023-12-04T14:22:36.421Z,15.80
2023-12-04T14:25:02.954Z,17.52
2023-12-04T14:27:29.373Z,14.75
2023-12-04T14:29:56.536Z,14.02
2023-12-04T14:32:27.278Z,15.00
2023-12-04T14:34:55.897Z,17.52
2023-12-04T14:37:23.140Z,12.85
2023-12-04T14:39:49.588Z,12.20
2023-12-04T14:42:16.049Z,12.10
2023-12-04T14:44:42.471Z,13.02
2023-12-04T14:47:08.893Z,12.73
2023-12-04T14:49:35.394Z,13.15
2023-12-04T14:52:02.021Z,11.85
2023-12-04T14:54:28.516Z,12.05
2023-12-04T14:56:54.930Z,10.82
2023-12-04T14:59:21.359Z,11.43
2023-12-04T15:01:47.889Z,13.90
2023-12-04T15:04:14.437Z,16.02
2023-12-04T15:06:40.958Z,9.35
2023-12-04T15:09:07.457Z,10.15
2023-12-04T15:11:33.958Z,9.82
2023-12-04T15:14:00.459Z,10.43
2023-12-04T15:16:26.900Z,9.70
2023-12-04T15:18:53.373Z,10.27
2023-12-04T15:21:19.862Z,10.32
2023-12-04T15:23:46.326Z,10.63
2023-12-04T15:26:12.730Z,10.10
2023-12-04T15:28:39.161Z,11.10
2023-12-04T15:31:05.590Z,9.32
2023-12-04T15:33:32.112Z,9.85
2023-12-04T15:35:58.598Z,10.00
2023-12-04T15:38:25.065Z,9.30
2023-12-04T15:40:51.471Z,9.43
2023-12-04T15:43:17.953Z,9.32
2023-12-04T15:45:44.505Z,9.35
2023-12-04T15:48:11.088Z,9.48
2023-12-04T15:50:37.602Z,10.68
2023-12-04T15:53:04.038Z,10.95
2023-12-04T15:55:30.493Z,10.02
2023-12-04T15:57:56.951Z,11.25
2023-12-04T16:00:23.437Z,11.05
2023-12-04T16:02:49.886Z,10.98
2023-12-04T16:05:16.488Z,10.40
2023-12-04T16:07:43.023Z,10.52
2023-12-04T16:10:09.479Z,9.63
2023-12-04T16:12:35.959Z,10.88
2023-12-04T16:15:02.426Z,10.93
2023-12-04T16:17:28.861Z,10.30
2023-12-04T16:19:55.432Z,10.38
2023-12-04T16:22:21.934Z,11.15
2023-12-04T16:24:48.367Z,10.15
2023-12-04T16:27:14.881Z,11.70
2023-12-04T16:29:41.303Z,9.30
2023-12-04T16:32:07.758Z,9.75
2023-12-04T16:34:34.297Z,11.40
2023-12-04T16:37:00.732Z,14.30
2023-12-04T16:39:27.177Z,11.40
2023-12-04T16:41:53.635Z,11.18
2023-12-04T16:44:20.715Z,14.43
2023-12-04T16:46:47.165Z,12.75
2023-12-04T16:49:13.698Z,12.88
2023-12-04T16:51:40.248Z,12.45
2023-12-04T16:54:06.773Z,13.15
2023-12-04T16:56:33.235Z,13.75
2023-12-04T16:58:59.663Z,12.27
2023-12-04T17:01:26.102Z,11.75
2023-12-04T17:03:52.857Z,12.80
2023-12-04T17:06:19.400Z,12.25
2023-12-04T17:08:45.981Z,14.38
2023-12-04T17:11:12.437Z,14.88
2023-12-04T17:13:38.831Z,14.55
2023-12-04T17:16:05.302Z,14.32
2023-12-04T17:18:31.776Z,14.65
2023-12-04T17:20:59.809Z,14.57
2023-12-04T17:23:26.329Z,13.70
2023-12-04T17:25:52.753Z,15.27
2023-12-04T17:28:19.193Z,12.40
2023-12-04T17:30:45.669Z,15.07
2023-12-04T17:33:12.314Z,13.95
2023-12-04T17:35:38.790Z,15.73
2023-12-04T17:38:05.212Z,14.85
2023-12-04T17:40:32.503Z,14.75
2023-12-04T17:42:58.919Z,14.00
2023-12-04T17:45:25.497Z,14.23
2023-12-04T17:47:51.988Z,14.68
2023-12-04T17:50:18.436Z,14.25
2023-12-04T17:52:44.873Z,13.82
2023-12-04T17:55:11.300Z,13.48
2023-12-04T17:57:37.742Z,13.95
2023-12-04T18:00:04.267Z,15.35
2023-12-04T18:02:32.914Z,15.63
2023-12-04T18:04:59.526Z,14.45
2023-12-04T18:07:26.411Z,13.73
2023-12-04T18:09:52.937Z,15.10
2023-12-04T18:12:19.457Z,16.45
2023-12-04T18:14:45.931Z,14.57
2023-12-04T18:17:12.367Z,17.85
2023-12-04T18:19:38.822Z,18.08
2023-12-04T18:22:05.333Z,16.42
2023-12-04T18:24:31.789Z,17.17
2023-12-04T18:26:58.206Z,17.15
2023-12-04T18:29:24.676Z,17.30
2023-12-04T18:31:51.161Z,17.73
2023-12-04T18:34:19.284Z,17.50
2023-12-04T18:36:46.401Z,17.80
2023-12-04T18:39:12.920Z,19.00
2023-12-04T18:41:39.375Z,17.42
2023-12-04T18:44:05.800Z,18.40
2023-12-04T18:46:32.215Z,18.73
2023-12-04T18:48:58.748Z,18.85
2023-12-04T18:51:25.276Z,18.85
2023-12-04T18:53:51.741Z,17.52
2023-12-04T18:56:18.132Z,18.88
2023-12-04T18:58:44.597Z,17.65
2023-12-04T19:01:11.004Z,19.05
2023-12-04T19:03:37.632Z,18.42
2023-12-04T19:06:04.278Z,17.77
2023-12-04T19:08:30.797Z,20.02
2023-12-04T19:10:57.231Z,19.90
2023-12-04T19:13:23.687Z,20.55
2023-12-04T19:15:50.231Z,20.80
2023-12-04T19:18:16.863Z,20.15
2023-12-04T19:20:43.433Z,19.00
2023-12-04T19:23:09.878Z,20.80
2023-12-04T19:25:48.434Z,19.95
2023-12-04T19:28:16.935Z,19.77
2023-12-04T19:30:43.478Z,19.55
2023-12-04T19:33:15.303Z,21.75
2023-12-04T19:35:45.078Z,18.73
2023-12-04T19:38:11.505Z,20.33
2023-12-04T19:40:37.948Z,17.60
2023-12-04T19:43:04.401Z,18.83
2023-12-04T19:45:30.854Z,19.88
2023-12-04T19:47:57.347Z,19.38
2023-12-04T19:50:23.840Z,18.95
2023-12-04T19:52:50.262Z,19.85
2023-12-04T19:55:16.693Z,21.00
2023-12-04T19:57:43.250Z,21.25
2023-12-04T20:00:09.683Z,21.98
2023-12-04T20:02:38.945Z,20.83
2023-12-04T20:05:05.594Z,22.80
2023-12-04T20:07:32.759Z,21.30
2023-12-04T20:09:59.151Z,23.05
2023-12-04T20:12:25.625Z,23.58
2023-12-04T20:14:52.070Z,22.13
2023-12-04T20:17:18.476Z,21.02
2023-12-04T20:19:44.933Z,23.73
2023-12-04T20:22:11.444Z,23.02
2023-12-04T20:24:37.935Z,24.27
2023-12-04T20:27:04.467Z,22.58
2023-12-04T20:29:30.913Z,23.88
2023-12-04T20:31:57.301Z,22.65
2023-12-04T20:34:23.817Z,20.67
2023-12-04T20:36:50.336Z,22.13
2023-12-04T20:39:16.779Z,24.08
2023-12-04T20:41:43.265Z,21.50
2023-12-04T20:44:09.694Z,23.75
2023-12-04T20:46:36.124Z,20.90
2023-12-04T20:49:02.616Z,24.05
2023-12-04T20:51:29.118Z,23.58
2023-12-04T20:53:55.564Z,23.08
2023-12-04T20:56:22.041Z,22.50
2023-12-04T20:58:48.453Z,23.15
2023-12-04T21:01:14.879Z,23.00
2023-12-04T21:03:41.441Z,24.15
2023-12-04T21:06:08.011Z,23.63
2023-12-04T21:08:34.462Z,26.77
2023-12-04T21:11:00.897Z,23.70
2023-12-04T21:13:27.411Z,23.17
2023-12-04T21:15:53.850Z,23.27
2023-12-04T21:18:20.427Z,24.38
2023-12-04T21:20:47.012Z,25.50
2023-12-04T21:23:13.440Z,25.33
2023-12-04T21:25:39.888Z,23.73
2023-12-04T21:28:06.340Z,24.50
2023-12-04T21:30:32.771Z,22.13
2023-12-04T21:32:59.250Z,23.92
2023-12-04T21:35:25.716Z,25.98
2023-12-04T21:37:52.155Z,23.38
2023-12-04T21:40:18.593Z,22.98
2023-12-04T21:42:45.050Z,24.75
2023-12-04T21:45:11.525Z,26.30
2023-12-04T21:47:38.092Z,26.23
2023-12-04T21:50:04.518Z,24.13
2023-12-04T21:52:30.965Z,25.42
2023-12-04T21:54:57.390Z,24.42
2023-12-04T21:57:24.162Z,25.58
2023-12-04T21:59:50.593Z,27.50
2023-12-04T22:02:17.025Z,28.05
2023-12-04T22:04:43.722Z,26.27
2023-12-04T22:07:10.267Z,28.23
2023-12-04T22:09:36.724Z,25.70
2023-12-04T22:12:03.198Z,24.92
2023-12-04T22:14:29.591Z,26.38
2023-12-04T22:16:56.021Z,26.63
2023-12-04T22:19:23.352Z,24.60
2023-12-04T22:21:49.878Z,27.25
2023-12-04T22:24:16.446Z,25.80
2023-12-04T22:26:42.896Z,23.88
2023-12-04T22:29:09.297Z,28.52
2023-12-04T22:31:35.756Z,27.45
2023-12-04T22:34:02.192Z,29.17
2023-12-04T22:36:28.619Z,28.25
2023-12-04T22:38:55.580Z,28.00
2023-12-04T22:41:21.975Z,28.58
2023-12-04T22:43:48.391Z,27.90
2023-12-04T22:46:14.868Z,27.35
2023-12-04T22:48:41.411Z,28.90
2023-12-04T22:51:07.972Z,26.63
2023-12-04T22:53:34.417Z,26.70
2023-12-04T22:56:00.850Z,27.90
2023-12-04T22:58:27.314Z,27.70
2023-12-04T23:00:53.796Z,27.67
2023-12-04T23:03:20.447Z,27.52
2023-12-04T23:05:47.015Z,26.50
2023-12-04T23:08:15.172Z,29.42
2023-12-04T23:10:42.326Z,29.60
2023-12-04T23:13:08.759Z,27.83
2023-12-04T23:15:35.268Z,29.60
2023-12-04T23:18:01.761Z,27.52
2023-12-04T23:20:28.237Z,29.58
2023-12-04T23:22:54.689Z,29.77
2023-12-04T23:25:21.250Z,29.42
2023-12-04T23:27:47.725Z,29.33
2023-12-04T23:30:14.185Z,28.17
2023-12-04T23:32:40.656Z,27.13
2023-12-04T23:35:07.106Z,27.20
2023-12-04T23:37:33.533Z,27.00
2023-12-04T23:39:59.962Z,27.27
2023-12-04T23:42:26.539Z,27.17
2023-12-04T23:44:52.997Z,28.25
2023-12-04T23:47:19.441Z,29.63
2023-12-04T23:49:45.927Z,27.88
2023-12-04T23:52:12.384Z,26.70
2023-12-04T23:54:38.855Z,27.42
2023-12-04T23:57:05.247Z,28.30
2023-12-04T23:59:31.712Z,25.20
